sensor_id;sensor_type;location;lat;lon;timestamp;pressure;altitude;pressure_sealevel;temperature;humidity
69127;BME280;56688;50.234;19.292;2023-11-19T00:00:49;99053.84;;;2.68;73.53
69127;BME280;56688;50.234;19.292;2023-11-19T00:03:20;99046.25;;;2.69;73.43
69127;BME280;56688;50.234;19.292;2023-11-19T00:05:47;99045.97;;;2.67;73.62
69127;BME280;56688;50.234;19.292;2023-11-19T00:08:14;99045.23;;;2.66;73.61
69127;BME280;56688;50.234;19.292;2023-11-19T00:10:42;99050.45;;;2.62;73.25
69127;BME280;56688;50.234;19.292;2023-11-19T00:13:08;99050.59;;;2.58;73.23
69127;BME280;56688;50.234;19.292;2023-11-19T00:15:37;99057.30;;;2.54;73.36
69127;BME280;56688;50.234;19.292;2023-11-19T00:18:04;99057.60;;;2.48;73.30
69127;BME280;56688;50.234;19.292;2023-11-19T00:20:31;99049.40;;;2.43;73.27
69127;BME280;56688;50.234;19.292;2023-11-19T00:22:58;99049.52;;;2.39;73.51
69127;BME280;56688;50.234;19.292;2023-11-19T00:25:25;99043.08;;;2.36;73.90
69127;BME280;56688;50.234;19.292;2023-11-19T00:27:52;99037.17;;;2.38;73.95
69127;BME280;56688;50.234;19.292;2023-11-19T00:30:20;99030.89;;;2.37;74.16
69127;BME280;56688;50.234;19.292;2023-11-19T00:32:47;99026.55;;;2.36;74.08
69127;BME280;56688;50.234;19.292;2023-11-19T00:35:14;99026.99;;;2.33;73.80
69127;BME280;56688;50.234;19.292;2023-11-19T00:37:42;99026.41;;;2.29;73.83
69127;BME280;56688;50.234;19.292;2023-11-19T00:40:10;99025.85;;;2.25;73.43
69127;BME280;56688;50.234;19.292;2023-11-19T00:42:38;99027.55;;;2.17;73.24
69127;BME280;56688;50.234;19.292;2023-11-19T00:45:05;99029.31;;;2.15;73.32
69127;BME280;56688;50.234;19.292;2023-11-19T00:47:36;99030.01;;;2.19;73.55
69127;BME280;56688;50.234;19.292;2023-11-19T00:50:04;99021.98;;;2.23;73.34
69127;BME280;56688;50.234;19.292;2023-11-19T00:52:31;99017.15;;;2.27;73.32
69127;BME280;56688;50.234;19.292;2023-11-19T00:54:58;99010.00;;;2.30;73.29
69127;BME280;56688;50.234;19.292;2023-11-19T00:57:24;99010.27;;;2.31;73.32
69127;BME280;56688;50.234;19.292;2023-11-19T00:59:53;99010.39;;;2.32;73.30
69127;BME280;56688;50.234;19.292;2023-11-19T01:02:20;99008.30;;;2.36;73.38
69127;BME280;56688;50.234;19.292;2023-11-19T01:04:47;99009.86;;;2.38;73.17
69127;BME280;56688;50.234;19.292;2023-11-19T01:07:14;99008.77;;;2.39;72.79
69127;BME280;56688;50.234;19.292;2023-11-19T01:09:42;99011.66;;;2.36;72.94
69127;BME280;56688;50.234;19.292;2023-11-19T01:12:10;99009.17;;;2.34;72.79
69127;BME280;56688;50.234;19.292;2023-11-19T01:14:37;99011.91;;;2.35;72.61
69127;BME280;56688;50.234;19.292;2023-11-19T01:17:05;99013.75;;;2.38;72.71
69127;BME280;56688;50.234;19.292;2023-11-19T01:19:34;99008.77;;;2.41;72.50
69127;BME280;56688;50.234;19.292;2023-11-19T01:22:01;99012.06;;;2.41;72.71
69127;BME280;56688;50.234;19.292;2023-11-19T01:24:28;99005.16;;;2.40;72.74
69127;BME280;56688;50.234;19.292;2023-11-19T01:26:58;99001.29;;;2.36;72.79
69127;BME280;56688;50.234;19.292;2023-11-19T01:29:27;98995.39;;;2.31;72.75
69127;BME280;56688;50.234;19.292;2023-11-19T01:31:53;98987.73;;;2.27;73.19
69127;BME280;56688;50.234;19.292;2023-11-19T01:34:20;98986.30;;;2.23;73.28
69127;BME280;56688;50.234;19.292;2023-11-19T01:36:47;98981.28;;;2.20;73.32
69127;BME280;56688;50.234;19.292;2023-11-19T01:39:16;98975.94;;;2.20;73.29
69127;BME280;56688;50.234;19.292;2023-11-19T01:41:43;98971.16;;;2.21;73.33
69127;BME280;56688;50.234;19.292;2023-11-19T01:44:10;98967.08;;;2.24;73.54
69127;BME280;56688;50.234;19.292;2023-11-19T01:46:42;98967.60;;;2.28;73.51
69127;BME280;56688;50.234;19.292;2023-11-19T01:49:11;98970.19;;;2.27;73.42
69127;BME280;56688;50.234;19.292;2023-11-19T01:51:40;98974.95;;;2.27;73.34
69127;BME280;56688;50.234;19.292;2023-11-19T01:54:08;98969.12;;;2.27;72.86
69127;BME280;56688;50.234;19.292;2023-11-19T01:56:37;98959.34;;;2.26;72.87
69127;BME280;56688;50.234;19.292;2023-11-19T01:59:09;98948.63;;;2.26;73.00
69127;BME280;56688;50.234;19.292;2023-11-19T02:01:37;98941.23;;;2.24;73.32
69127;BME280;56688;50.234;19.292;2023-11-19T02:04:08;98940.41;;;2.23;73.29
69127;BME280;56688;50.234;19.292;2023-11-19T02:06:37;98936.41;;;2.23;73.37
69127;BME280;56688;50.234;19.292;2023-11-19T02:09:08;98930.00;;;2.24;73.41
69127;BME280;56688;50.234;19.292;2023-11-19T02:11:36;98926.34;;;2.26;73.39
69127;BME280;56688;50.234;19.292;2023-11-19T02:14:07;98918.69;;;2.27;73.25
69127;BME280;56688;50.234;19.292;2023-11-19T02:16:33;98904.54;;;2.28;73.14
69127;BME280;56688;50.234;19.292;2023-11-19T02:19:01;98897.63;;;2.29;73.26
69127;BME280;56688;50.234;19.292;2023-11-19T02:21:29;98886.67;;;2.29;73.44
69127;BME280;56688;50.234;19.292;2023-11-19T02:23:56;98883.16;;;2.29;73.51
69127;BME280;56688;50.234;19.292;2023-11-19T02:26:52;98884.80;;;2.28;73.61
69127;BME280;56688;50.234;19.292;2023-11-19T02:29:25;98880.45;;;2.24;73.44
69127;BME280;56688;50.234;19.292;2023-11-19T02:31:52;98871.09;;;2.20;73.53
69127;BME280;56688;50.234;19.292;2023-11-19T02:34:21;98863.30;;;2.18;73.69
69127;BME280;56688;50.234;19.292;2023-11-19T02:36:48;98855.36;;;2.21;73.62
69127;BME280;56688;50.234;19.292;2023-11-19T02:39:16;98846.16;;;2.24;73.58
69127;BME280;56688;50.234;19.292;2023-11-19T02:41:48;98844.59;;;2.30;73.36
69127;BME280;56688;50.234;19.292;2023-11-19T02:44:18;98838.30;;;2.34;72.93
69127;BME280;56688;50.234;19.292;2023-11-19T02:46:45;98832.63;;;2.34;72.66
69127;BME280;56688;50.234;19.292;2023-11-19T02:49:15;98829.08;;;2.35;72.44
69127;BME280;56688;50.234;19.292;2023-11-19T02:51:42;98822.33;;;2.33;72.31
69127;BME280;56688;50.234;19.292;2023-11-19T02:54:10;98814.11;;;2.31;72.31
69127;BME280;56688;50.234;19.292;2023-11-19T02:56:37;98805.27;;;2.29;72.53
69127;BME280;56688;50.234;19.292;2023-11-19T02:59:05;98793.60;;;2.24;72.54
69127;BME280;56688;50.234;19.292;2023-11-19T03:01:42;98798.00;;;2.15;72.81
69127;BME280;56688;50.234;19.292;2023-11-19T03:04:11;98802.91;;;2.11;72.93
69127;BME280;56688;50.234;19.292;2023-11-19T03:06:39;98791.46;;;2.07;73.09
69127;BME280;56688;50.234;19.292;2023-11-19T03:09:06;98784.50;;;2.07;73.25
69127;BME280;56688;50.234;19.292;2023-11-19T03:11:37;98785.75;;;2.06;73.29
69127;BME280;56688;50.234;19.292;2023-11-19T03:14:04;98791.34;;;2.07;73.76
69127;BME280;56688;50.234;19.292;2023-11-19T03:16:31;98792.44;;;2.09;74.10
69127;BME280;56688;50.234;19.292;2023-11-19T03:18:59;98801.46;;;2.10;74.14
69127;BME280;56688;50.234;19.292;2023-11-19T03:21:28;98791.56;;;2.06;73.97
69127;BME280;56688;50.234;19.292;2023-11-19T03:23:56;98780.46;;;2.04;74.04
69127;BME280;56688;50.234;19.292;2023-11-19T03:26:27;98773.31;;;2.04;73.95
69127;BME280;56688;50.234;19.292;2023-11-19T03:28:54;98774.16;;;2.02;74.02
69127;BME280;56688;50.234;19.292;2023-11-19T03:31:21;98772.52;;;2.01;74.10
69127;BME280;56688;50.234;19.292;2023-11-19T03:33:48;98775.80;;;2.02;74.19
69127;BME280;56688;50.234;19.292;2023-11-19T03:36:14;98771.37;;;2.04;74.31
69127;BME280;56688;50.234;19.292;2023-11-19T03:38:41;98768.83;;;2.07;74.45
69127;BME280;56688;50.234;19.292;2023-11-19T03:41:13;98761.18;;;2.12;74.35
69127;BME280;56688;50.234;19.292;2023-11-19T03:43:41;98758.50;;;2.13;74.27
69127;BME280;56688;50.234;19.292;2023-11-19T03:46:23;98756.36;;;2.13;74.05
69127;BME280;56688;50.234;19.292;2023-11-19T03:48:50;98750.27;;;2.09;74.31
69127;BME280;56688;50.234;19.292;2023-11-19T03:51:17;98754.52;;;2.02;73.98
69127;BME280;56688;50.234;19.292;2023-11-19T03:53:45;98743.06;;;1.88;74.45
69127;BME280;56688;50.234;19.292;2023-11-19T03:56:12;98725.13;;;1.81;74.73
69127;BME280;56688;50.234;19.292;2023-11-19T03:58:39;98714.77;;;1.79;74.95
69127;BME280;56688;50.234;19.292;2023-11-19T04:01:11;98710.44;;;1.77;75.07
69127;BME280;56688;50.234;19.292;2023-11-19T04:03:40;98706.35;;;1.73;75.04
69127;BME280;56688;50.234;19.292;2023-11-19T04:06:17;98699.33;;;1.71;75.07
69127;BME280;56688;50.234;19.292;2023-11-19T04:08:44;98694.41;;;1.69;75.18
69127;BME280;56688;50.234;19.292;2023-11-19T04:11:11;98690.24;;;1.66;75.36
69127;BME280;56688;50.234;19.292;2023-11-19T04:13:38;98683.90;;;1.62;75.34
69127;BME280;56688;50.234;19.292;2023-11-19T04:16:05;98682.28;;;1.56;75.43
69127;BME280;56688;50.234;19.292;2023-11-19T04:18:32;98684.33;;;1.50;75.27
69127;BME280;56688;50.234;19.292;2023-11-19T04:20:59;98679.41;;;1.44;75.51
69127;BME280;56688;50.234;19.292;2023-11-19T04:23:26;98686.06;;;1.40;75.61
69127;BME280;56688;50.234;19.292;2023-11-19T04:25:53;98691.37;;;1.37;75.54
69127;BME280;56688;50.234;19.292;2023-11-19T04:28:20;98690.98;;;1.36;75.95
69127;BME280;56688;50.234;19.292;2023-11-19T04:30:47;98681.71;;;1.35;75.67
69127;BME280;56688;50.234;19.292;2023-11-19T04:33:14;98667.36;;;1.33;75.58
69127;BME280;56688;50.234;19.292;2023-11-19T04:35:41;98661.14;;;1.29;76.05
69127;BME280;56688;50.234;19.292;2023-11-19T04:38:08;98660.86;;;1.27;75.87
69127;BME280;56688;50.234;19.292;2023-11-19T04:40:35;98657.99;;;1.19;75.93
69127;BME280;56688;50.234;19.292;2023-11-19T04:43:02;98658.70;;;1.10;76.15
69127;BME280;56688;50.234;19.292;2023-11-19T04:45:29;98654.84;;;1.01;76.45
69127;BME280;56688;50.234;19.292;2023-11-19T04:47:56;98647.26;;;0.95;76.83
69127;BME280;56688;50.234;19.292;2023-11-19T04:50:23;98650.89;;;0.92;77.02
69127;BME280;56688;50.234;19.292;2023-11-19T04:52:50;98656.51;;;0.90;76.54
69127;BME280;56688;50.234;19.292;2023-11-19T04:55:17;98654.95;;;0.89;76.84
69127;BME280;56688;50.234;19.292;2023-11-19T04:57:44;98654.48;;;0.89;76.60
69127;BME280;56688;50.234;19.292;2023-11-19T05:00:12;98657.96;;;0.89;77.13
69127;BME280;56688;50.234;19.292;2023-11-19T05:02:43;98655.15;;;0.87;76.95
69127;BME280;56688;50.234;19.292;2023-11-19T05:05:10;98650.59;;;0.85;76.86
69127;BME280;56688;50.234;19.292;2023-11-19T05:07:37;98650.80;;;0.82;76.89
69127;BME280;56688;50.234;19.292;2023-11-19T05:10:05;98643.83;;;0.77;76.88
69127;BME280;56688;50.234;19.292;2023-11-19T05:12:33;98641.38;;;0.71;76.97
69127;BME280;56688;50.234;19.292;2023-11-19T05:14:59;98638.93;;;0.66;77.19
69127;BME280;56688;50.234;19.292;2023-11-19T05:17:27;98637.84;;;0.62;77.29
69127;BME280;56688;50.234;19.292;2023-11-19T05:19:54;98641.03;;;0.62;77.67
69127;BME280;56688;50.234;19.292;2023-11-19T05:22:21;98647.66;;;0.62;77.93
69127;BME280;56688;50.234;19.292;2023-11-19T05:24:48;98644.83;;;0.63;77.84
69127;BME280;56688;50.234;19.292;2023-11-19T05:27:16;98634.45;;;0.65;77.92
69127;BME280;56688;50.234;19.292;2023-11-19T05:29:43;98626.54;;;0.66;77.70
69127;BME280;56688;50.234;19.292;2023-11-19T05:32:10;98615.01;;;0.63;77.85
69127;BME280;56688;50.234;19.292;2023-11-19T05:34:38;98606.77;;;0.61;77.96
69127;BME280;56688;50.234;19.292;2023-11-19T05:37:18;98597.89;;;0.56;77.85
69127;BME280;56688;50.234;19.292;2023-11-19T05:39:45;98593.57;;;0.52;78.71
69127;BME280;56688;50.234;19.292;2023-11-19T05:42:12;98584.18;;;0.51;78.85
69127;BME280;56688;50.234;19.292;2023-11-19T05:44:39;98576.05;;;0.54;79.22
69127;BME280;56688;50.234;19.292;2023-11-19T05:47:07;98576.90;;;0.60;79.77
69127;BME280;56688;50.234;19.292;2023-11-19T05:49:34;98570.67;;;0.60;79.75
69127;BME280;56688;50.234;19.292;2023-11-19T05:52:02;98567.69;;;0.60;79.70
69127;BME280;56688;50.234;19.292;2023-11-19T05:54:30;98571.08;;;0.58;79.58
69127;BME280;56688;50.234;19.292;2023-11-19T05:56:58;98573.40;;;0.58;79.70
69127;BME280;56688;50.234;19.292;2023-11-19T05:59:25;98582.35;;;0.52;79.97
69127;BME280;56688;50.234;19.292;2023-11-19T06:01:52;98579.20;;;0.48;79.96
69127;BME280;56688;50.234;19.292;2023-11-19T06:04:19;98584.59;;;0.42;80.27
69127;BME280;56688;50.234;19.292;2023-11-19T06:06:46;98583.80;;;0.37;80.51
69127;BME280;56688;50.234;19.292;2023-11-19T06:09:13;98577.65;;;0.35;80.55
69127;BME280;56688;50.234;19.292;2023-11-19T06:11:40;98580.05;;;0.38;81.15
69127;BME280;56688;50.234;19.292;2023-11-19T06:14:07;98583.16;;;0.43;81.32
69127;BME280;56688;50.234;19.292;2023-11-19T06:16:34;98577.73;;;0.51;81.09
69127;BME280;56688;50.234;19.292;2023-11-19T06:19:01;98578.82;;;0.57;81.49
69127;BME280;56688;50.234;19.292;2023-11-19T06:21:28;98579.55;;;0.61;81.22
69127;BME280;56688;50.234;19.292;2023-11-19T06:23:55;98585.50;;;0.64;81.13
69127;BME280;56688;50.234;19.292;2023-11-19T06:26:22;98587.45;;;0.67;81.44
69127;BME280;56688;50.234;19.292;2023-11-19T06:28:50;98580.80;;;0.72;81.57
69127;BME280;56688;50.234;19.292;2023-11-19T06:31:16;98576.33;;;0.75;81.66
69127;BME280;56688;50.234;19.292;2023-11-19T06:33:44;98574.64;;;0.79;81.40
69127;BME280;56688;50.234;19.292;2023-11-19T06:36:14;98570.05;;;0.83;81.61
69127;BME280;56688;50.234;19.292;2023-11-19T06:38:43;98564.65;;;0.91;81.56
69127;BME280;56688;50.234;19.292;2023-11-19T06:41:10;98553.02;;;1.01;81.59
69127;BME280;56688;50.234;19.292;2023-11-19T06:43:37;98547.88;;;1.10;81.24
69127;BME280;56688;50.234;19.292;2023-11-19T06:46:15;98547.95;;;1.17;81.48
69127;BME280;56688;50.234;19.292;2023-11-19T06:48:43;98544.77;;;1.24;80.93
69127;BME280;56688;50.234;19.292;2023-11-19T06:51:11;98532.52;;;1.27;80.99
69127;BME280;56688;50.234;19.292;2023-11-19T06:53:38;98524.70;;;1.31;80.83
69127;BME280;56688;50.234;19.292;2023-11-19T06:56:27;98529.19;;;1.35;80.78
69127;BME280;56688;50.234;19.292;2023-11-19T06:58:54;98530.08;;;1.44;80.78
69127;BME280;56688;50.234;19.292;2023-11-19T07:01:21;98518.20;;;1.48;80.71
69127;BME280;56688;50.234;19.292;2023-11-19T07:03:48;98510.42;;;1.52;80.59
69127;BME280;56688;50.234;19.292;2023-11-19T07:06:16;98504.69;;;1.55;80.65
69127;BME280;56688;50.234;19.292;2023-11-19T07:08:44;98499.81;;;1.59;80.64
69127;BME280;56688;50.234;19.292;2023-11-19T07:11:12;98501.41;;;1.61;80.56
69127;BME280;56688;50.234;19.292;2023-11-19T07:13:41;98506.71;;;1.62;80.59
69127;BME280;56688;50.234;19.292;2023-11-19T07:16:08;98504.73;;;1.63;80.68
69127;BME280;56688;50.234;19.292;2023-11-19T07:18:37;98509.24;;;1.63;80.70
69127;BME280;56688;50.234;19.292;2023-11-19T07:21:04;98519.11;;;1.70;80.80
69127;BME280;56688;50.234;19.292;2023-11-19T07:23:31;98511.89;;;1.74;80.91
69127;BME280;56688;50.234;19.292;2023-11-19T07:26:00;98513.20;;;1.77;80.88
69127;BME280;56688;50.234;19.292;2023-11-19T07:28:26;98510.91;;;1.81;80.95
69127;BME280;56688;50.234;19.292;2023-11-19T07:30:55;98502.08;;;1.83;80.90
69127;BME280;56688;50.234;19.292;2023-11-19T07:33:23;98497.74;;;1.87;80.85
69127;BME280;56688;50.234;19.292;2023-11-19T07:35:50;98491.38;;;1.91;80.85
69127;BME280;56688;50.234;19.292;2023-11-19T07:38:17;98487.95;;;1.96;80.65
69127;BME280;56688;50.234;19.292;2023-11-19T07:40:44;98492.88;;;2.02;80.76
69127;BME280;56688;50.234;19.292;2023-11-19T07:43:23;98481.89;;;2.07;80.77
69127;BME280;56688;50.234;19.292;2023-11-19T07:45:50;98482.34;;;2.10;80.43
69127;BME280;56688;50.234;19.292;2023-11-19T07:48:16;98479.50;;;2.12;80.42
69127;BME280;56688;50.234;19.292;2023-11-19T07:50:49;98480.70;;;2.15;80.54
69127;BME280;56688;50.234;19.292;2023-11-19T07:53:18;98479.55;;;2.18;80.40
69127;BME280;56688;50.234;19.292;2023-11-19T07:55:45;98480.26;;;2.24;80.52
69127;BME280;56688;50.234;19.292;2023-11-19T07:58:12;98465.45;;;2.34;80.45
69127;BME280;56688;50.234;19.292;2023-11-19T08:00:39;98452.30;;;2.42;80.11
69127;BME280;56688;50.234;19.292;2023-11-19T08:03:07;98448.70;;;2.44;79.78
69127;BME280;56688;50.234;19.292;2023-11-19T08:05:34;98433.00;;;2.43;79.57
69127;BME280;56688;50.234;19.292;2023-11-19T08:08:01;98423.62;;;2.44;79.45
69127;BME280;56688;50.234;19.292;2023-11-19T08:10:28;98428.68;;;2.46;79.17
69127;BME280;56688;50.234;19.292;2023-11-19T08:12:56;98428.52;;;2.52;79.33
69127;BME280;56688;50.234;19.292;2023-11-19T08:15:23;98424.98;;;2.66;79.67
69127;BME280;56688;50.234;19.292;2023-11-19T08:17:52;98416.57;;;2.84;79.38
69127;BME280;56688;50.234;19.292;2023-11-19T08:20:20;98413.20;;;2.96;78.92
69127;BME280;56688;50.234;19.292;2023-11-19T08:22:47;98412.19;;;3.07;78.30
69127;BME280;56688;50.234;19.292;2023-11-19T08:25:14;98414.53;;;3.12;77.85
69127;BME280;56688;50.234;19.292;2023-11-19T08:27:41;98414.50;;;3.16;77.58
69127;BME280;56688;50.234;19.292;2023-11-19T08:30:08;98406.80;;;3.14;77.28
69127;BME280;56688;50.234;19.292;2023-11-19T08:32:35;98407.08;;;3.13;77.29
69127;BME280;56688;50.234;19.292;2023-11-19T08:35:03;98406.80;;;3.16;77.06
69127;BME280;56688;50.234;19.292;2023-11-19T08:37:30;98402.38;;;3.18;76.61
69127;BME280;56688;50.234;19.292;2023-11-19T08:39:57;98401.45;;;3.13;76.66
69127;BME280;56688;50.234;19.292;2023-11-19T08:42:25;98402.49;;;3.14;76.78
69127;BME280;56688;50.234;19.292;2023-11-19T08:44:52;98397.25;;;3.12;76.62
69127;BME280;56688;50.234;19.292;2023-11-19T08:47:21;98399.67;;;3.11;76.92
69127;BME280;56688;50.234;19.292;2023-11-19T08:49:51;98400.70;;;3.13;76.62
69127;BME280;56688;50.234;19.292;2023-11-19T08:52:22;98401.75;;;3.17;76.46
69127;BME280;56688;50.234;19.292;2023-11-19T08:54:49;98394.48;;;3.17;76.62
69127;BME280;56688;50.234;19.292;2023-11-19T08:57:15;98385.46;;;3.20;76.69
69127;BME280;56688;50.234;19.292;2023-11-19T08:59:42;98384.57;;;3.21;76.59
69127;BME280;56688;50.234;19.292;2023-11-19T09:02:10;98381.21;;;3.22;76.83
69127;BME280;56688;50.234;19.292;2023-11-19T09:04:37;98375.88;;;3.23;76.49
69127;BME280;56688;50.234;19.292;2023-11-19T09:07:04;98375.34;;;3.23;76.38
69127;BME280;56688;50.234;19.292;2023-11-19T09:09:31;98378.78;;;3.25;76.23
69127;BME280;56688;50.234;19.292;2023-11-19T09:12:02;98364.73;;;3.30;76.06
69127;BME280;56688;50.234;19.292;2023-11-19T09:14:30;98355.14;;;3.31;75.71
69127;BME280;56688;50.234;19.292;2023-11-19T09:16:57;98357.52;;;3.32;75.48
69127;BME280;56688;50.234;19.292;2023-11-19T09:19:25;98338.29;;;3.32;75.47
69127;BME280;56688;50.234;19.292;2023-11-19T09:21:53;98318.09;;;3.34;75.66
69127;BME280;56688;50.234;19.292;2023-11-19T09:24:20;98319.74;;;3.37;75.43
69127;BME280;56688;50.234;19.292;2023-11-19T09:26:47;98326.44;;;3.41;75.27
69127;BME280;56688;50.234;19.292;2023-11-19T09:29:14;98336.95;;;3.43;75.26
69127;BME280;56688;50.234;19.292;2023-11-19T09:31:41;98324.67;;;3.46;75.37
69127;BME280;56688;50.234;19.292;2023-11-19T09:34:08;98332.05;;;3.50;75.22
69127;BME280;56688;50.234;19.292;2023-11-19T09:36:35;98331.32;;;3.52;75.02
69127;BME280;56688;50.234;19.292;2023-11-19T09:39:02;98334.66;;;3.50;74.99
69127;BME280;56688;50.234;19.292;2023-11-19T09:41:32;98326.89;;;3.54;75.01
69127;BME280;56688;50.234;19.292;2023-11-19T09:43:59;98316.73;;;3.59;74.63
69127;BME280;56688;50.234;19.292;2023-11-19T09:46:26;98309.85;;;3.67;74.70
69127;BME280;56688;50.234;19.292;2023-11-19T09:48:53;98305.22;;;3.74;74.26
69127;BME280;56688;50.234;19.292;2023-11-19T09:51:21;98298.67;;;3.80;74.13
69127;BME280;56688;50.234;19.292;2023-11-19T09:53:49;98296.23;;;3.83;73.88
69127;BME280;56688;50.234;19.292;2023-11-19T09:56:17;98284.38;;;3.87;73.19
69127;BME280;56688;50.234;19.292;2023-11-19T09:58:44;98270.40;;;3.91;73.06
69127;BME280;56688;50.234;19.292;2023-11-19T10:01:11;98268.45;;;3.99;73.23
69127;BME280;56688;50.234;19.292;2023-11-19T10:03:42;98261.84;;;4.08;73.42
69127;BME280;56688;50.234;19.292;2023-11-19T10:06:14;98254.17;;;4.18;72.79
69127;BME280;56688;50.234;19.292;2023-11-19T10:08:42;98258.55;;;4.24;72.43
69127;BME280;56688;50.234;19.292;2023-11-19T10:11:10;98246.02;;;4.29;71.78
69127;BME280;56688;50.234;19.292;2023-11-19T10:13:40;98235.98;;;4.35;71.78
69127;BME280;56688;50.234;19.292;2023-11-19T10:16:11;98227.98;;;4.40;70.81
69127;BME280;56688;50.234;19.292;2023-11-19T10:18:48;98222.70;;;4.41;70.87
69127;BME280;56688;50.234;19.292;2023-11-19T10:21:18;98214.33;;;4.51;70.96
69127;BME280;56688;50.234;19.292;2023-11-19T10:23:53;98210.77;;;4.61;70.16
69127;BME280;56688;50.234;19.292;2023-11-19T10:26:21;98203.23;;;4.69;69.12
69127;BME280;56688;50.234;19.292;2023-11-19T10:28:49;98195.14;;;4.76;68.62
69127;BME280;56688;50.234;19.292;2023-11-19T10:31:17;98194.50;;;4.82;68.58
69127;BME280;56688;50.234;19.292;2023-11-19T10:33:45;98187.61;;;4.89;68.68
69127;BME280;56688;50.234;19.292;2023-11-19T10:36:13;98184.69;;;4.93;68.06
69127;BME280;56688;50.234;19.292;2023-11-19T10:38:40;98182.14;;;4.94;67.93
69127;BME280;56688;50.234;19.292;2023-11-19T10:41:33;98179.77;;;4.90;67.69
69127;BME280;56688;50.234;19.292;2023-11-19T10:44:00;98181.84;;;4.88;67.74
69127;BME280;56688;50.234;19.292;2023-11-19T10:46:42;98176.61;;;4.88;67.20
69127;BME280;56688;50.234;19.292;2023-11-19T10:49:10;98176.23;;;4.75;66.86
69127;BME280;56688;50.234;19.292;2023-11-19T10:51:44;98168.88;;;4.70;67.70
69127;BME280;56688;50.234;19.292;2023-11-19T10:54:15;98156.99;;;4.68;67.30
69127;BME280;56688;50.234;19.292;2023-11-19T10:56:55;98143.83;;;4.69;67.41
69127;BME280;56688;50.234;19.292;2023-11-19T10:59:29;98139.38;;;4.73;67.83
69127;BME280;56688;50.234;19.292;2023-11-19T11:09:38;98114.60;;;4.72;67.32
69127;BME280;56688;50.234;19.292;2023-11-19T11:12:06;98114.79;;;4.70;67.48
69127;BME280;56688;50.234;19.292;2023-11-19T11:14:34;98112.55;;;4.63;67.90
69127;BME280;56688;50.234;19.292;2023-11-19T11:17:04;98117.14;;;4.59;67.90
69127;BME280;56688;50.234;19.292;2023-11-19T11:19:35;98117.39;;;4.54;69.12
69127;BME280;56688;50.234;19.292;2023-11-19T11:22:04;98119.79;;;4.46;69.58
69127;BME280;56688;50.234;19.292;2023-11-19T11:30:13;98104.07;;;4.02;72.46
69127;BME280;56688;50.234;19.292;2023-11-19T11:35:27;98099.05;;;3.75;74.53
69127;BME280;56688;50.234;19.292;2023-11-19T11:38:03;98098.19;;;3.69;75.47
69127;BME280;56688;50.234;19.292;2023-11-19T11:40:30;98091.55;;;3.65;76.00
69127;BME280;56688;50.234;19.292;2023-11-19T11:42:58;98083.23;;;3.60;76.24
69127;BME280;56688;50.234;19.292;2023-11-19T11:45:41;98081.73;;;3.59;76.66
69127;BME280;56688;50.234;19.292;2023-11-19T11:48:11;98081.63;;;3.59;76.89
69127;BME280;56688;50.234;19.292;2023-11-19T11:50:56;98076.80;;;3.56;77.33
69127;BME280;56688;50.234;19.292;2023-11-19T11:53:25;98070.36;;;3.52;77.56
69127;BME280;56688;50.234;19.292;2023-11-19T11:55:54;98058.55;;;3.45;77.55
69127;BME280;56688;50.234;19.292;2023-11-19T11:58:31;98059.36;;;3.37;77.78
69127;BME280;56688;50.234;19.292;2023-11-19T12:01:01;98052.87;;;3.30;78.01
69127;BME280;56688;50.234;19.292;2023-11-19T12:03:29;98053.48;;;3.22;78.00
69127;BME280;56688;50.234;19.292;2023-11-19T12:05:57;98051.09;;;3.14;78.26
69127;BME280;56688;50.234;19.292;2023-11-19T12:08:26;98047.39;;;3.11;78.32
69127;BME280;56688;50.234;19.292;2023-11-19T12:10:56;98049.03;;;3.09;78.39
69127;BME280;56688;50.234;19.292;2023-11-19T12:13:46;98044.69;;;3.06;78.58
69127;BME280;56688;50.234;19.292;2023-11-19T12:16:14;98036.05;;;3.03;78.86
69127;BME280;56688;50.234;19.292;2023-11-19T12:18:41;98027.73;;;2.99;78.66
69127;BME280;56688;50.234;19.292;2023-11-19T12:21:08;98021.06;;;2.92;78.95
69127;BME280;56688;50.234;19.292;2023-11-19T12:23:44;98020.38;;;2.89;79.01
69127;BME280;56688;50.234;19.292;2023-11-19T12:26:32;98019.23;;;2.84;79.34
69127;BME280;56688;50.234;19.292;2023-11-19T12:28:59;98018.14;;;2.83;79.49
69127;BME280;56688;50.234;19.292;2023-11-19T12:31:26;98019.19;;;2.81;79.56
69127;BME280;56688;50.234;19.292;2023-11-19T12:33:54;98009.04;;;2.83;79.76
69127;BME280;56688;50.234;19.292;2023-11-19T12:36:21;98007.85;;;2.82;79.71
69127;BME280;56688;50.234;19.292;2023-11-19T12:38:48;98006.14;;;2.83;79.72
69127;BME280;56688;50.234;19.292;2023-11-19T12:41:17;98003.40;;;2.81;79.85
69127;BME280;56688;50.234;19.292;2023-11-19T12:43:47;97999.42;;;2.78;79.95
69127;BME280;56688;50.234;19.292;2023-11-19T12:46:22;97994.34;;;2.78;80.15
69127;BME280;56688;50.234;19.292;2023-11-19T12:48:50;97991.48;;;2.80;80.18
69127;BME280;56688;50.234;19.292;2023-11-19T12:51:18;97979.64;;;2.79;80.24
69127;BME280;56688;50.234;19.292;2023-11-19T12:53:50;97983.42;;;2.78;80.32
69127;BME280;56688;50.234;19.292;2023-11-19T12:56:21;97975.99;;;2.77;80.59
69127;BME280;56688;50.234;19.292;2023-11-19T12:58:48;97972.23;;;2.74;80.56
69127;BME280;56688;50.234;19.292;2023-11-19T13:01:18;97967.95;;;2.69;80.71
69127;BME280;56688;50.234;19.292;2023-11-19T13:03:46;97960.73;;;2.68;81.00
69127;BME280;56688;50.234;19.292;2023-11-19T13:06:16;97962.54;;;2.69;81.18
69127;BME280;56688;50.234;19.292;2023-11-19T13:08:50;97958.77;;;2.70;81.38
69127;BME280;56688;50.234;19.292;2023-11-19T13:11:35;97954.04;;;2.73;81.37
69127;BME280;56688;50.234;19.292;2023-11-19T13:14:23;97953.69;;;2.75;81.77
69127;BME280;56688;50.234;19.292;2023-11-19T13:17:03;97958.50;;;2.78;81.79
69127;BME280;56688;50.234;19.292;2023-11-19T13:19:43;97959.57;;;2.79;81.89
69127;BME280;56688;50.234;19.292;2023-11-19T13:22:23;97952.73;;;2.79;82.04
69127;BME280;56688;50.234;19.292;2023-11-19T13:25:03;97948.65;;;2.79;82.03